sensor_id;sensor_type;location;lat;lon;timestamp;P1;durP1;ratioP1;P2;durP2;ratioP2
21392;SDS011;10857;52.228;21.026;2022-10-26T06:42:49;37.55;;;20.67;;
21392;SDS011;10857;52.228;21.026;2022-10-26T06:45:17;38.92;;;20.77;;
21392;SDS011;10857;52.228;21.026;2022-10-26T06:55:54;35.05;;;20.60;;
21392;SDS011;10857;52.228;21.026;2022-10-26T06:58:28;38.65;;;19.55;;
21392;SDS011;10857;52.228;21.026;2022-10-26T07:00:59;34.38;;;19.73;;
21392;SDS011;10857;52.228;21.026;2022-10-26T07:03:27;40.85;;;20.25;;
21392;SDS011;10857;52.228;21.026;2022-10-26T07:05:54;35.53;;;19.45;;
21392;SDS011;10857;52.228;21.026;2022-10-26T07:08:21;33.70;;;18.88;;
21392;SDS011;10857;52.228;21.026;2022-10-26T07:10:48;33.22;;;18.58;;
21392;SDS011;10857;52.228;21.026;2022-10-26T07:13:14;37.15;;;19.83;;
21392;SDS011;10857;52.228;21.026;2022-10-26T07:15:41;33.65;;;18.90;;
21392;SDS011;10857;52.228;21.026;2022-10-26T07:18:08;40.88;;;19.60;;
21392;SDS011;10857;52.228;21.026;2022-10-26T07:20:37;40.58;;;19.83;;
21392;SDS011;10857;52.228;21.026;2022-10-26T07:23:05;37.50;;;20.05;;
21392;SDS011;10857;52.228;21.026;2022-10-26T07:25:33;39.90;;;21.17;;
21392;SDS011;10857;52.228;21.026;2022-10-26T07:28:00;41.05;;;21.00;;
21392;SDS011;10857;52.228;21.026;2022-10-26T07:30:28;38.45;;;21.60;;
21392;SDS011;10857;52.228;21.026;2022-10-26T07:32:59;34.45;;;20.00;;
21392;SDS011;10857;52.228;21.026;2022-10-26T07:35:31;40.10;;;20.52;;
21392;SDS011;10857;52.228;21.026;2022-10-26T07:37:59;40.20;;;21.93;;
21392;SDS011;10857;52.228;21.026;2022-10-26T07:40:26;38.47;;;21.20;;
21392;SDS011;10857;52.228;21.026;2022-10-26T07:42:57;40.30;;;21.70;;
21392;SDS011;10857;52.228;21.026;2022-10-26T07:45:25;40.40;;;21.57;;
21392;SDS011;10857;52.228;21.026;2022-10-26T07:47:53;39.53;;;20.73;;
21392;SDS011;10857;52.228;21.026;2022-10-26T07:50:20;40.13;;;20.42;;
21392;SDS011;10857;52.228;21.026;2022-10-26T07:52:47;35.15;;;19.00;;
21392;SDS011;10857;52.228;21.026;2022-10-26T07:55:15;37.28;;;19.65;;
21392;SDS011;10857;52.228;21.026;2022-10-26T07:57:42;35.88;;;20.48;;
21392;SDS011;10857;52.228;21.026;2022-10-26T08:00:09;36.20;;;20.13;;
21392;SDS011;10857;52.228;21.026;2022-10-26T08:02:36;40.25;;;20.65;;
21392;SDS011;10857;52.228;21.026;2022-10-26T08:05:03;35.65;;;19.88;;
21392;SDS011;10857;52.228;21.026;2022-10-26T08:07:31;31.55;;;19.40;;
21392;SDS011;10857;52.228;21.026;2022-10-26T08:09:58;32.50;;;17.88;;
21392;SDS011;10857;52.228;21.026;2022-10-26T08:12:26;33.55;;;17.33;;
21392;SDS011;10857;52.228;21.026;2022-10-26T08:14:52;31.05;;;17.98;;
21392;SDS011;10857;52.228;21.026;2022-10-26T08:17:19;33.20;;;18.10;;
21392;SDS011;10857;52.228;21.026;2022-10-26T08:19:48;36.03;;;19.60;;
21392;SDS011;10857;52.228;21.026;2022-10-26T08:22:15;34.28;;;18.90;;
21392;SDS011;10857;52.228;21.026;2022-10-26T08:24:42;36.33;;;20.08;;
21392;SDS011;10857;52.228;21.026;2022-10-26T08:27:12;35.28;;;18.80;;
21392;SDS011;10857;52.228;21.026;2022-10-26T08:29:40;26.70;;;16.53;;
21392;SDS011;10857;52.228;21.026;2022-10-26T08:32:07;25.50;;;15.65;;
21392;SDS011;10857;52.228;21.026;2022-10-26T08:34:34;24.85;;;15.40;;
21392;SDS011;10857;52.228;21.026;2022-10-26T08:37:01;27.75;;;16.80;;
21392;SDS011;10857;52.228;21.026;2022-10-26T08:39:28;33.88;;;17.30;;
21392;SDS011;10857;52.228;21.026;2022-10-26T08:44:54;29.75;;;18.20;;
21392;SDS011;10857;52.228;21.026;2022-10-26T08:47:29;35.70;;;18.73;;
21392;SDS011;10857;52.228;21.026;2022-10-26T08:55:28;46.83;;;22.00;;
21392;SDS011;10857;52.228;21.026;2022-10-26T08:58:14;40.15;;;22.80;;
21392;SDS011;10857;52.228;21.026;2022-10-26T09:00:44;43.75;;;23.45;;
21392;SDS011;10857;52.228;21.026;2022-10-26T09:03:14;36.25;;;21.58;;
21392;SDS011;10857;52.228;21.026;2022-10-26T09:05:45;35.67;;;20.08;;
21392;SDS011;10857;52.228;21.026;2022-10-26T09:08:32;38.72;;;22.35;;
21392;SDS011;10857;52.228;21.026;2022-10-26T09:11:32;45.97;;;26.95;;
21392;SDS011;10857;52.228;21.026;2022-10-26T09:14:18;49.45;;;26.88;;
21392;SDS011;10857;52.228;21.026;2022-10-26T09:19:26;48.03;;;26.40;;
21392;SDS011;10857;52.228;21.026;2022-10-26T09:22:11;37.83;;;21.88;;
21392;SDS011;10857;52.228;21.026;2022-10-26T09:25:02;39.97;;;22.17;;
21392;SDS011;10857;52.228;21.026;2022-10-26T09:27:56;39.85;;;22.58;;
21392;SDS011;10857;52.228;21.026;2022-10-26T09:30:26;39.08;;;23.00;;
21392;SDS011;10857;52.228;21.026;2022-10-26T09:32:59;39.58;;;23.08;;
21392;SDS011;10857;52.228;21.026;2022-10-26T09:35:42;37.10;;;22.15;;
21392;SDS011;10857;52.228;21.026;2022-10-26T09:38:28;39.00;;;21.08;;
21392;SDS011;10857;52.228;21.026;2022-10-26T09:40:58;36.00;;;21.20;;
21392;SDS011;10857;52.228;21.026;2022-10-26T09:43:48;36.38;;;20.60;;
21392;SDS011;10857;52.228;21.026;2022-10-26T09:46:44;37.28;;;22.15;;
21392;SDS011;10857;52.228;21.026;2022-10-26T09:49:22;42.40;;;22.63;;
21392;SDS011;10857;52.228;21.026;2022-10-26T09:51:58;37.65;;;21.92;;
21392;SDS011;10857;52.228;21.026;2022-10-26T09:54:25;41.97;;;22.55;;
21392;SDS011;10857;52.228;21.026;2022-10-26T09:56:55;42.55;;;23.65;;
21392;SDS011;10857;52.228;21.026;2022-10-26T09:59:25;39.58;;;23.45;;
21392;SDS011;10857;52.228;21.026;2022-10-26T10:01:53;38.50;;;22.63;;
21392;SDS011;10857;52.228;21.026;2022-10-26T10:04:21;33.80;;;20.45;;
21392;SDS011;10857;52.228;21.026;2022-10-26T10:06:52;38.25;;;22.13;;
21392;SDS011;10857;52.228;21.026;2022-10-26T10:09:38;35.58;;;22.35;;
21392;SDS011;10857;52.228;21.026;2022-10-26T10:12:05;38.17;;;23.15;;
21392;SDS011;10857;52.228;21.026;2022-10-26T10:14:56;38.22;;;23.13;;
21392;SDS011;10857;52.228;21.026;2022-10-26T10:17:24;47.47;;;28.10;;
21392;SDS011;10857;52.228;21.026;2022-10-26T10:19:51;43.05;;;21.98;;
21392;SDS011;10857;52.228;21.026;2022-10-26T10:22:19;36.13;;;21.33;;
21392;SDS011;10857;52.228;21.026;2022-10-26T10:27:24;34.90;;;21.23;;
21392;SDS011;10857;52.228;21.026;2022-10-26T10:29:53;32.40;;;19.42;;
21392;SDS011;10857;52.228;21.026;2022-10-26T10:32:29;32.15;;;19.00;;
21392;SDS011;10857;52.228;21.026;2022-10-26T10:35:05;33.90;;;20.55;;
21392;SDS011;10857;52.228;21.026;2022-10-26T10:37:49;33.28;;;19.55;;
21392;SDS011;10857;52.228;21.026;2022-10-26T10:40:21;33.00;;;20.30;;
21392;SDS011;10857;52.228;21.026;2022-10-26T10:42:51;36.47;;;20.70;;
21392;SDS011;10857;52.228;21.026;2022-10-26T10:45:28;38.55;;;21.02;;
21392;SDS011;10857;52.228;21.026;2022-10-26T10:48:03;37.95;;;20.85;;
21392;SDS011;10857;52.228;21.026;2022-10-26T10:56:13;32.35;;;19.67;;
21392;SDS011;10857;52.228;21.026;2022-10-26T11:01:29;31.77;;;18.20;;
21392;SDS011;10857;52.228;21.026;2022-10-26T11:06:38;33.72;;;17.77;;
21392;SDS011;10857;52.228;21.026;2022-10-26T11:09:11;29.00;;;18.30;;
21392;SDS011;10857;52.228;21.026;2022-10-26T11:11:43;27.02;;;17.08;;
21392;SDS011;10857;52.228;21.026;2022-10-26T11:14:32;30.52;;;18.83;;
21392;SDS011;10857;52.228;21.026;2022-10-26T11:17:05;28.10;;;17.70;;
21392;SDS011;10857;52.228;21.026;2022-10-26T11:22:13;31.05;;;17.77;;
21392;SDS011;10857;52.228;21.026;2022-10-26T11:24:57;30.92;;;18.17;;
21392;SDS011;10857;52.228;21.026;2022-10-26T11:30:20;29.98;;;18.58;;
21392;SDS011;10857;52.228;21.026;2022-10-26T11:32:52;34.47;;;18.58;;
21392;SDS011;10857;52.228;21.026;2022-10-26T11:35:25;34.83;;;18.60;;
21392;SDS011;10857;52.228;21.026;2022-10-26T11:37:54;35.47;;;19.05;;
21392;SDS011;10857;52.228;21.026;2022-10-26T11:48:22;36.97;;;20.85;;
21392;SDS011;10857;52.228;21.026;2022-10-26T11:50:56;36.60;;;20.67;;
21392;SDS011;10857;52.228;21.026;2022-10-26T11:53:38;37.53;;;22.23;;
21392;SDS011;10857;52.228;21.026;2022-10-26T11:56:12;38.28;;;23.20;;
21392;SDS011;10857;52.228;21.026;2022-10-26T11:58:46;51.85;;;25.23;;
21392;SDS011;10857;52.228;21.026;2022-10-26T12:01:13;41.30;;;24.05;;
21392;SDS011;10857;52.228;21.026;2022-10-26T12:03:43;41.60;;;24.20;;
21392;SDS011;10857;52.228;21.026;2022-10-26T12:06:13;36.53;;;22.10;;
21392;SDS011;10857;52.228;21.026;2022-10-26T12:09:02;36.65;;;22.08;;
21392;SDS011;10857;52.228;21.026;2022-10-26T12:11:37;37.72;;;22.50;;
21392;SDS011;10857;52.228;21.026;2022-10-26T12:17:17;34.88;;;20.00;;
21392;SDS011;10857;52.228;21.026;2022-10-26T12:23:01;30.35;;;19.90;;
21392;SDS011;10857;52.228;21.026;2022-10-26T12:25:30;34.72;;;18.38;;
21392;SDS011;10857;52.228;21.026;2022-10-26T12:27:57;37.22;;;18.90;;
21392;SDS011;10857;52.228;21.026;2022-10-26T12:30:27;32.10;;;18.08;;
21392;SDS011;10857;52.228;21.026;2022-10-26T12:33:26;32.38;;;18.10;;
21392;SDS011;10857;52.228;21.026;2022-10-26T12:35:54;29.77;;;18.92;;
21392;SDS011;10857;52.228;21.026;2022-10-26T12:43:32;33.88;;;18.20;;
21392;SDS011;10857;52.228;21.026;2022-10-26T12:48:49;30.02;;;18.48;;
21392;SDS011;10857;52.228;21.026;2022-10-26T12:53:55;30.48;;;18.00;;
21392;SDS011;10857;52.228;21.026;2022-10-26T12:56:33;30.92;;;17.15;;
21392;SDS011;10857;52.228;21.026;2022-10-26T13:04:59;29.33;;;17.65;;
21392;SDS011;10857;52.228;21.026;2022-10-26T13:07:50;33.38;;;17.30;;
21392;SDS011;10857;52.228;21.026;2022-10-26T13:10:18;31.40;;;17.13;;
21392;SDS011;10857;52.228;21.026;2022-10-26T13:15:27;29.83;;;16.55;;
21392;SDS011;10857;52.228;21.026;2022-10-26T13:20:35;37.78;;;17.52;;
21392;SDS011;10857;52.228;21.026;2022-10-26T13:23:13;32.75;;;16.25;;
21392;SDS011;10857;52.228;21.026;2022-10-26T13:25:42;30.60;;;15.95;;
21392;SDS011;10857;52.228;21.026;2022-10-26T13:34:12;26.77;;;15.68;;
21392;SDS011;10857;52.228;21.026;2022-10-26T13:39:22;36.72;;;17.05;;
21392;SDS011;10857;52.228;21.026;2022-10-26T13:41:52;30.83;;;16.10;;
21392;SDS011;10857;52.228;21.026;2022-10-26T13:44:28;26.40;;;15.05;;
21392;SDS011;10857;52.228;21.026;2022-10-26T13:47:11;27.92;;;16.00;;
21392;SDS011;10857;52.228;21.026;2022-10-26T13:49:47;29.83;;;15.82;;
21392;SDS011;10857;52.228;21.026;2022-10-26T13:52:19;25.50;;;15.55;;
21392;SDS011;10857;52.228;21.026;2022-10-26T13:55:00;28.60;;;16.70;;
21392;SDS011;10857;52.228;21.026;2022-10-26T13:57:41;29.08;;;16.15;;
21392;SDS011;10857;52.228;21.026;2022-10-26T14:00:19;28.58;;;16.10;;
21392;SDS011;10857;52.228;21.026;2022-10-26T14:02:48;30.13;;;16.88;;
21392;SDS011;10857;52.228;21.026;2022-10-26T14:05:16;27.70;;;16.65;;
21392;SDS011;10857;52.228;21.026;2022-10-26T14:07:48;27.83;;;16.92;;
21392;SDS011;10857;52.228;21.026;2022-10-26T14:10:39;28.98;;;15.80;;
21392;SDS011;10857;52.228;21.026;2022-10-26T14:13:08;25.25;;;15.68;;
21392;SDS011;10857;52.228;21.026;2022-10-26T14:15:42;27.02;;;15.40;;
21392;SDS011;10857;52.228;21.026;2022-10-26T14:18:15;29.20;;;15.93;;
21392;SDS011;10857;52.228;21.026;2022-10-26T14:21:03;25.08;;;15.73;;
21392;SDS011;10857;52.228;21.026;2022-10-26T14:23:36;25.80;;;15.43;;
21392;SDS011;10857;52.228;21.026;2022-10-26T14:26:18;27.80;;;15.35;;
21392;SDS011;10857;52.228;21.026;2022-10-26T14:28:47;25.58;;;15.40;;
21392;SDS011;10857;52.228;21.026;2022-10-26T14:31:20;22.13;;;13.95;;
21392;SDS011;10857;52.228;21.026;2022-10-26T14:33:48;27.23;;;14.80;;
21392;SDS011;10857;52.228;21.026;2022-10-26T14:36:15;26.17;;;14.75;;
21392;SDS011;10857;52.228;21.026;2022-10-26T14:38:45;28.50;;;15.52;;
21392;SDS011;10857;52.228;21.026;2022-10-26T14:41:16;26.50;;;15.07;;
21392;SDS011;10857;52.228;21.026;2022-10-26T14:43:44;26.67;;;14.50;;
21392;SDS011;10857;52.228;21.026;2022-10-26T14:46:15;26.17;;;15.13;;
21392;SDS011;10857;52.228;21.026;2022-10-26T14:48:58;24.35;;;14.23;;
21392;SDS011;10857;52.228;21.026;2022-10-26T14:51:27;31.35;;;15.85;;
21392;SDS011;10857;52.228;21.026;2022-10-26T14:53:56;32.47;;;16.13;;
21392;SDS011;10857;52.228;21.026;2022-10-26T14:56:26;26.80;;;15.20;;
21392;SDS011;10857;52.228;21.026;2022-10-26T14:58:54;22.45;;;14.50;;
21392;SDS011;10857;52.228;21.026;2022-10-26T15:03:54;25.33;;;14.68;;
21392;SDS011;10857;52.228;21.026;2022-10-26T15:06:39;25.88;;;14.63;;
21392;SDS011;10857;52.228;21.026;2022-10-26T15:11:58;24.17;;;14.18;;
21392;SDS011;10857;52.228;21.026;2022-10-26T15:14:28;28.17;;;14.25;;
21392;SDS011;10857;52.228;21.026;2022-10-26T15:16:55;25.73;;;14.02;;
21392;SDS011;10857;52.228;21.026;2022-10-26T15:19:23;24.58;;;14.13;;
21392;SDS011;10857;52.228;21.026;2022-10-26T15:21:52;23.85;;;14.55;;
21392;SDS011;10857;52.228;21.026;2022-10-26T15:26:51;26.77;;;14.07;;
21392;SDS011;10857;52.228;21.026;2022-10-26T15:37:37;27.27;;;15.20;;
21392;SDS011;10857;52.228;21.026;2022-10-26T15:40:04;26.90;;;15.13;;
21392;SDS011;10857;52.228;21.026;2022-10-26T15:42:35;24.10;;;15.18;;
21392;SDS011;10857;52.228;21.026;2022-10-26T15:45:04;26.23;;;15.88;;
21392;SDS011;10857;52.228;21.026;2022-10-26T15:47:47;25.65;;;13.57;;
21392;SDS011;10857;52.228;21.026;2022-10-26T15:50:21;24.15;;;13.30;;
21392;SDS011;10857;52.228;21.026;2022-10-26T15:52:53;24.85;;;13.27;;
21392;SDS011;10857;52.228;21.026;2022-10-26T15:55:24;24.15;;;13.60;;
21392;SDS011;10857;52.228;21.026;2022-10-26T15:57:51;19.55;;;12.85;;
21392;SDS011;10857;52.228;21.026;2022-10-26T16:00:18;26.55;;;14.80;;
21392;SDS011;10857;52.228;21.026;2022-10-26T16:02:45;24.13;;;14.33;;
21392;SDS011;10857;52.228;21.026;2022-10-26T16:05:13;28.00;;;15.30;;
21392;SDS011;10857;52.228;21.026;2022-10-26T16:07:42;23.85;;;14.07;;
21392;SDS011;10857;52.228;21.026;2022-10-26T16:10:23;27.15;;;13.80;;
21392;SDS011;10857;52.228;21.026;2022-10-26T16:12:53;25.60;;;14.20;;
21392;SDS011;10857;52.228;21.026;2022-10-26T16:15:21;22.53;;;13.33;;
21392;SDS011;10857;52.228;21.026;2022-10-26T16:17:50;22.92;;;14.70;;
21392;SDS011;10857;52.228;21.026;2022-10-26T16:20:19;22.73;;;14.32;;
21392;SDS011;10857;52.228;21.026;2022-10-26T16:22:49;24.60;;;14.48;;
21392;SDS011;10857;52.228;21.026;2022-10-26T16:25:19;24.13;;;14.45;;
21392;SDS011;10857;52.228;21.026;2022-10-26T16:27:48;27.52;;;15.35;;
21392;SDS011;10857;52.228;21.026;2022-10-26T16:30:16;27.13;;;14.27;;
21392;SDS011;10857;52.228;21.026;2022-10-26T16:32:44;25.95;;;14.90;;
21392;SDS011;10857;52.228;21.026;2022-10-26T16:35:14;21.13;;;13.90;;
21392;SDS011;10857;52.228;21.026;2022-10-26T16:37:41;22.00;;;14.13;;
21392;SDS011;10857;52.228;21.026;2022-10-26T16:40:08;23.58;;;14.73;;
21392;SDS011;10857;52.228;21.026;2022-10-26T16:42:36;28.53;;;14.77;;
21392;SDS011;10857;52.228;21.026;2022-10-26T16:45:04;23.27;;;14.50;;
21392;SDS011;10857;52.228;21.026;2022-10-26T16:47:32;24.87;;;15.27;;
21392;SDS011;10857;52.228;21.026;2022-10-26T16:50:08;25.93;;;13.90;;
21392;SDS011;10857;52.228;21.026;2022-10-26T16:52:37;25.63;;;14.73;;
21392;SDS011;10857;52.228;21.026;2022-10-26T16:55:05;29.42;;;15.90;;
21392;SDS011;10857;52.228;21.026;2022-10-26T16:57:33;24.25;;;15.10;;
21392;SDS011;10857;52.228;21.026;2022-10-26T17:00:02;26.55;;;15.02;;
21392;SDS011;10857;52.228;21.026;2022-10-26T17:02:30;30.70;;;16.48;;
21392;SDS011;10857;52.228;21.026;2022-10-26T17:04:57;29.38;;;16.15;;
21392;SDS011;10857;52.228;21.026;2022-10-26T17:07:32;26.83;;;16.10;;
21392;SDS011;10857;52.228;21.026;2022-10-26T17:09:59;26.65;;;15.93;;
21392;SDS011;10857;52.228;21.026;2022-10-26T17:12:26;25.70;;;15.48;;
21392;SDS011;10857;52.228;21.026;2022-10-26T17:14:55;28.95;;;15.63;;
21392;SDS011;10857;52.228;21.026;2022-10-26T17:17:25;26.98;;;15.82;;
21392;SDS011;10857;52.228;21.026;2022-10-26T17:19:52;31.15;;;17.90;;
21392;SDS011;10857;52.228;21.026;2022-10-26T17:22:19;35.80;;;22.17;;
21392;SDS011;10857;52.228;21.026;2022-10-26T17:24:47;32.75;;;21.05;;
21392;SDS011;10857;52.228;21.026;2022-10-26T17:27:13;28.67;;;16.98;;
21392;SDS011;10857;52.228;21.026;2022-10-26T17:29:42;30.90;;;17.10;;
21392;SDS011;10857;52.228;21.026;2022-10-26T17:32:09;38.58;;;17.55;;
21392;SDS011;10857;52.228;21.026;2022-10-26T17:34:37;29.08;;;19.45;;
21392;SDS011;10857;52.228;21.026;2022-10-26T17:37:04;34.58;;;20.70;;
21392;SDS011;10857;52.228;21.026;2022-10-26T17:39:31;30.05;;;18.80;;
21392;SDS011;10857;52.228;21.026;2022-10-26T17:41:58;33.92;;;19.30;;
21392;SDS011;10857;52.228;21.026;2022-10-26T17:44:25;34.20;;;20.65;;
21392;SDS011;10857;52.228;21.026;2022-10-26T17:46:52;32.53;;;19.63;;
21392;SDS011;10857;52.228;21.026;2022-10-26T17:49:19;29.15;;;19.30;;
21392;SDS011;10857;52.228;21.026;2022-10-26T17:51:52;28.77;;;18.00;;
21392;SDS011;10857;52.228;21.026;2022-10-26T17:54:20;34.25;;;18.27;;
21392;SDS011;10857;52.228;21.026;2022-10-26T17:56:47;34.72;;;18.92;;
21392;SDS011;10857;52.228;21.026;2022-10-26T17:59:14;35.35;;;19.40;;
21392;SDS011;10857;52.228;21.026;2022-10-26T18:01:41;33.20;;;17.88;;
21392;SDS011;10857;52.228;21.026;2022-10-26T18:04:10;32.55;;;19.05;;
21392;SDS011;10857;52.228;21.026;2022-10-26T18:06:37;35.25;;;19.00;;
21392;SDS011;10857;52.228;21.026;2022-10-26T18:09:04;33.53;;;19.23;;
21392;SDS011;10857;52.228;21.026;2022-10-26T18:11:32;34.92;;;19.15;;
21392;SDS011;10857;52.228;21.026;2022-10-26T18:13:59;35.58;;;20.42;;
21392;SDS011;10857;52.228;21.026;2022-10-26T18:16:26;37.72;;;20.45;;
21392;SDS011;10857;52.228;21.026;2022-10-26T18:18:57;32.22;;;20.02;;
21392;SDS011;10857;52.228;21.026;2022-10-26T18:21:32;39.97;;;21.08;;
21392;SDS011;10857;52.228;21.026;2022-10-26T18:24:03;35.47;;;20.23;;
21392;SDS011;10857;52.228;21.026;2022-10-26T18:26:34;39.38;;;20.98;;
21392;SDS011;10857;52.228;21.026;2022-10-26T18:29:02;36.83;;;19.92;;
21392;SDS011;10857;52.228;21.026;2022-10-26T18:31:30;35.85;;;19.20;;
21392;SDS011;10857;52.228;21.026;2022-10-26T18:34:00;33.13;;;19.30;;
21392;SDS011;10857;52.228;21.026;2022-10-26T18:36:30;30.52;;;18.85;;
21392;SDS011;10857;52.228;21.026;2022-10-26T18:38:59;32.58;;;18.15;;
21392;SDS011;10857;52.228;21.026;2022-10-26T18:41:27;33.90;;;18.80;;
21392;SDS011;10857;52.228;21.026;2022-10-26T18:43:55;32.88;;;19.70;;
21392;SDS011;10857;52.228;21.026;2022-10-26T18:46:26;39.78;;;21.27;;
21392;SDS011;10857;52.228;21.026;2022-10-26T18:48:59;41.28;;;21.23;;
21392;SDS011;10857;52.228;21.026;2022-10-26T18:51:30;39.08;;;20.73;;
21392;SDS011;10857;52.228;21.026;2022-10-26T18:53:58;40.78;;;20.23;;
21392;SDS011;10857;52.228;21.026;2022-10-26T18:56:26;38.40;;;20.73;;
21392;SDS011;10857;52.228;21.026;2022-10-26T18:59:02;42.03;;;20.80;;
21392;SDS011;10857;52.228;21.026;2022-10-26T19:01:31;39.22;;;21.17;;
21392;SDS011;10857;52.228;21.026;2022-10-26T19:04:02;37.15;;;21.48;;
21392;SDS011;10857;52.228;21.026;2022-10-26T19:06:33;47.65;;;27.15;;
21392;SDS011;10857;52.228;21.026;2022-10-26T19:09:02;43.83;;;22.67;;
21392;SDS011;10857;52.228;21.026;2022-10-26T19:11:31;41.53;;;22.27;;
21392;SDS011;10857;52.228;21.026;2022-10-26T19:13:59;39.05;;;21.55;;
21392;SDS011;10857;52.228;21.026;2022-10-26T19:16:27;40.20;;;22.10;;
21392;SDS011;10857;52.228;21.026;2022-10-26T19:19:11;37.33;;;21.13;;
21392;SDS011;10857;52.228;21.026;2022-10-26T19:21:40;34.38;;;20.88;;
21392;SDS011;10857;52.228;21.026;2022-10-26T19:24:10;31.63;;;19.02;;
21392;SDS011;10857;52.228;21.026;2022-10-26T19:26:41;37.47;;;19.77;;
21392;SDS011;10857;52.228;21.026;2022-10-26T19:29:10;34.72;;;20.45;;
21392;SDS011;10857;52.228;21.026;2022-10-26T19:31:42;38.40;;;20.73;;
21392;SDS011;10857;52.228;21.026;2022-10-26T19:34:10;36.10;;;20.45;;
21392;SDS011;10857;52.228;21.026;2022-10-26T19:36:38;33.47;;;20.33;;
21392;SDS011;10857;52.228;21.026;2022-10-26T19:39:12;35.58;;;20.20;;
21392;SDS011;10857;52.228;21.026;2022-10-26T19:41:50;36.28;;;19.95;;
21392;SDS011;10857;52.228;21.026;2022-10-26T19:44:22;32.80;;;19.60;;
21392;SDS011;10857;52.228;21.026;2022-10-26T19:46:53;33.72;;;20.10;;
21392;SDS011;10857;52.228;21.026;2022-10-26T19:49:27;33.70;;;20.42;;
21392;SDS011;10857;52.228;21.026;2022-10-26T19:51:57;37.22;;;20.35;;
21392;SDS011;10857;52.228;21.026;2022-10-26T19:54:26;36.72;;;19.98;;
21392;SDS011;10857;52.228;21.026;2022-10-26T19:56:53;32.30;;;18.90;;
21392;SDS011;10857;52.228;21.026;2022-10-26T19:59:20;33.45;;;19.55;;
21392;SDS011;10857;52.228;21.026;2022-10-26T20:01:47;31.75;;;18.38;;
21392;SDS011;10857;52.228;21.026;2022-10-26T20:04:16;31.60;;;19.02;;
21392;SDS011;10857;52.228;21.026;2022-10-26T20:06:43;32.30;;;20.02;;
21392;SDS011;10857;52.228;21.026;2022-10-26T20:09:10;34.45;;;20.00;;
21392;SDS011;10857;52.228;21.026;2022-10-26T20:11:39;33.65;;;20.00;;
21392;SDS011;10857;52.228;21.026;2022-10-26T20:14:10;32.83;;;19.10;;
21392;SDS011;10857;52.228;21.026;2022-10-26T20:16:40;31.98;;;18.65;;
21392;SDS011;10857;52.228;21.026;2022-10-26T20:19:08;32.28;;;18.17;;
21392;SDS011;10857;52.228;21.026;2022-10-26T20:21:37;34.63;;;19.15;;
21392;SDS011;10857;52.228;21.026;2022-10-26T20:24:04;30.17;;;18.38;;
21392;SDS011;10857;52.228;21.026;2022-10-26T20:26:35;39.72;;;22.48;;
21392;SDS011;10857;52.228;21.026;2022-10-26T20:29:09;32.97;;;21.15;;
21392;SDS011;10857;52.228;21.026;2022-10-26T20:31:37;33.75;;;20.90;;
21392;SDS011;10857;52.228;21.026;2022-10-26T20:34:04;36.40;;;20.73;;
21392;SDS011;10857;52.228;21.026;2022-10-26T20:36:33;35.40;;;21.08;;
21392;SDS011;10857;52.228;21.026;2022-10-26T20:39:03;37.85;;;21.08;;
21392;SDS011;10857;52.228;21.026;2022-10-26T20:41:31;31.17;;;19.75;;
21392;SDS011;10857;52.228;21.026;2022-10-26T20:44:08;39.33;;;20.63;;
21392;SDS011;10857;52.228;21.026;2022-10-26T20:46:47;40.05;;;21.40;;
21392;SDS011;10857;52.228;21.026;2022-10-26T20:49:14;36.83;;;21.38;;
21392;SDS011;10857;52.228;21.026;2022-10-26T20:54:41;42.75;;;21.40;;
21392;SDS011;10857;52.228;21.026;2022-10-26T20:57:16;39.70;;;22.33;;
21392;SDS011;10857;52.228;21.026;2022-10-26T20:59:54;42.33;;;22.48;;
21392;SDS011;10857;52.228;21.026;2022-10-26T21:02:37;38.22;;;22.08;;
21392;SDS011;10857;52.228;21.026;2022-10-26T21:05:09;41.60;;;22.33;;
21392;SDS011;10857;52.228;21.026;2022-10-26T21:07:36;41.10;;;22.42;;
21392;SDS011;10857;52.228;21.026;2022-10-26T21:10:04;47.40;;;22.23;;
21392;SDS011;10857;52.228;21.026;2022-10-26T21:12:32;40.40;;;21.60;;
21392;SDS011;10857;52.228;21.026;2022-10-26T21:14:59;36.17;;;21.92;;
21392;SDS011;10857;52.228;21.026;2022-10-26T21:17:28;38.42;;;21.90;;
21392;SDS011;10857;52.228;21.026;2022-10-26T21:19:55;38.22;;;22.33;;
21392;SDS011;10857;52.228;21.026;2022-10-26T21:22:22;37.63;;;21.92;;
21392;SDS011;10857;52.228;21.026;2022-10-26T21:24:48;35.83;;;21.10;;
21392;SDS011;10857;52.228;21.026;2022-10-26T21:27:16;37.08;;;22.38;;
21392;SDS011;10857;52.228;21.026;2022-10-26T21:29:47;39.58;;;20.90;;
21392;SDS011;10857;52.228;21.026;2022-10-26T21:32:14;41.42;;;23.02;;
21392;SDS011;10857;52.228;21.026;2022-10-26T21:34:41;38.10;;;21.98;;
21392;SDS011;10857;52.228;21.026;2022-10-26T21:37:07;42.38;;;24.08;;
21392;SDS011;10857;52.228;21.026;2022-10-26T21:39:36;47.88;;;25.52;;
21392;SDS011;10857;52.228;21.026;2022-10-26T21:42:03;49.58;;;26.35;;
21392;SDS011;10857;52.228;21.026;2022-10-26T21:44:30;39.80;;;23.20;;
21392;SDS011;10857;52.228;21.026;2022-10-26T21:47:08;39.47;;;22.58;;
21392;SDS011;10857;52.228;21.026;2022-10-26T21:49:38;40.17;;;22.52;;
21392;SDS011;10857;52.228;21.026;2022-10-26T21:52:10;35.90;;;21.63;;
21392;SDS011;10857;52.228;21.026;2022-10-26T21:54:37;36.88;;;22.17;;
21392;SDS011;10857;52.228;21.026;2022-10-26T21:57:04;39.47;;;22.23;;
21392;SDS011;10857;52.228;21.026;2022-10-26T21:59:33;38.40;;;22.45;;
21392;SDS011;10857;52.228;21.026;2022-10-26T22:02:02;45.40;;;22.77;;
21392;SDS011;10857;52.228;21.026;2022-10-26T22:04:29;36.58;;;22.25;;
21392;SDS011;10857;52.228;21.026;2022-10-26T22:06:57;38.10;;;22.20;;
21392;SDS011;10857;52.228;21.026;2022-10-26T22:09:25;43.00;;;23.60;;
21392;SDS011;10857;52.228;21.026;2022-10-26T22:11:55;42.63;;;22.02;;
21392;SDS011;10857;52.228;21.026;2022-10-26T22:14:25;40.00;;;22.92;;
21392;SDS011;10857;52.228;21.026;2022-10-26T22:16:52;45.15;;;23.80;;
21392;SDS011;10857;52.228;21.026;2022-10-26T22:19:19;40.05;;;24.35;;
21392;SDS011;10857;52.228;21.026;2022-10-26T22:21:46;42.85;;;24.15;;
21392;SDS011;10857;52.228;21.026;2022-10-26T22:24:15;40.85;;;24.58;;
21392;SDS011;10857;52.228;21.026;2022-10-26T22:26:43;41.80;;;24.30;;
21392;SDS011;10857;52.228;21.026;2022-10-26T22:29:10;44.30;;;25.43;;
21392;SDS011;10857;52.228;21.026;2022-10-26T22:31:45;42.55;;;25.25;;
21392;SDS011;10857;52.228;21.026;2022-10-26T22:34:15;42.28;;;24.13;;
21392;SDS011;10857;52.228;21.026;2022-10-26T22:36:42;46.63;;;25.02;;
21392;SDS011;10857;52.228;21.026;2022-10-26T22:39:13;42.80;;;23.70;;
21392;SDS011;10857;52.228;21.026;2022-10-26T22:41:47;40.78;;;23.80;;
21392;SDS011;10857;52.228;21.026;2022-10-26T22:44:19;41.23;;;24.23;;
21392;SDS011;10857;52.228;21.026;2022-10-26T22:46:49;41.47;;;23.83;;
21392;SDS011;10857;52.228;21.026;2022-10-26T22:49:16;41.07;;;24.17;;
21392;SDS011;10857;52.228;21.026;2022-10-26T22:51:45;44.23;;;24.73;;
